Time;durP1;ratioP1;P1;durP2;ratioP2;P2;SDS_P1;SDS_P2;PMS_P1;PMS_P2;Temp;Humidity;BMP_temperature;BMP_pressure;BME280_temperature;BME280_humidity;BME280_pressure;Samples;Min_cycle;Max_cycle;Signal;HPM_P1;HPM_P2
2021/12/02 00:02:14;;;;;;;3.30;1.35;;;4.60;99.90;;;;;;5076114;28;20032;-84
2021/12/02 00:04:40;;;;;;;2.15;1.50;;;4.50;99.90;;;;;;5094128;28;20031;-84
2021/12/02 00:07:07;;;;;;;3.72;1.60;;;4.50;99.90;;;;;;5075998;28;20016;-84
2021/12/02 00:09:34;;;;;;;4.75;2.08;;;4.40;99.90;;;;;;5075918;28;20016;-84
2021/12/02 00:12:00;;;;;;;3.72;1.48;;;4.50;99.90;;;;;;5075920;28;20111;-83
2021/12/02 00:14:27;;;;;;;3.15;1.70;;;4.50;99.90;;;;;;5094606;28;20046;-84
2021/12/02 00:22:11;;;;;;;2.20;1.10;;;4.50;99.90;;;;;;5093995;28;20146;-84
2021/12/02 00:24:39;;;;;;;1.63;0.95;;;4.50;99.90;;;;;;5075918;28;20040;-83
2021/12/02 00:27:07;;;;;;;3.38;1.20;;;4.60;99.90;;;;;;5094326;28;20032;-83
2021/12/02 00:29:34;;;;;;;1.90;1.05;;;4.60;99.90;;;;;;5075595;28;20024;-84
2021/12/02 00:32:06;;;;;;;2.55;1.10;;;4.60;99.90;;;;;;5075864;28;20020;-84
2021/12/02 00:34:32;;;;;;;1.48;1.00;;;4.60;99.90;;;;;;5075580;28;20020;-84
2021/12/02 00:37:00;;;;;;;2.38;1.20;;;4.60;99.90;;;;;;5075454;28;20480;-83
2021/12/02 00:39:29;;;;;;;2.28;1.13;;;4.50;99.90;;;;;;5080778;28;20092;-83
2021/12/02 00:41:55;;;;;;;1.63;0.95;;;4.50;99.90;;;;;;5082071;28;20067;-83
2021/12/02 00:44:21;;;;;;;3.20;1.05;;;4.50;99.90;;;;;;5076923;28;20028;-84
2021/12/02 00:46:48;;;;;;;2.40;1.00;;;4.50;99.90;;;;;;5075877;28;20024;-83
2021/12/02 00:49:18;;;;;;;1.58;0.70;;;4.60;99.90;;;;;;5093590;28;20031;-84
2021/12/02 00:51:52;;;;;;;2.63;0.90;;;4.60;99.90;;;;;;5075400;28;20020;-84
2021/12/02 00:54:18;;;;;;;;;;;4.50;99.90;;;;;;5075789;28;20032;-84
2021/12/02 00:56:44;;;;;;;2.95;1.05;;;4.50;99.90;;;;;;5075223;28;19904;-84
2021/12/02 00:59:10;;;;;;;3.85;1.08;;;4.40;99.90;;;;;;5075214;28;20062;-84
2021/12/02 01:01:38;;;;;;;3.50;1.00;;;4.40;99.90;;;;;;5093370;28;20455;-84
2021/12/02 01:04:13;;;;;;;1.83;1.13;;;4.40;99.90;;;;;;5075130;28;20048;-84
2021/12/02 01:06:40;;;;;;;1.90;1.08;;;4.40;99.90;;;;;;5075783;28;20024;-83
2021/12/02 01:09:07;;;;;;;2.63;1.08;;;4.40;99.90;;;;;;5075168;28;20151;-84
2021/12/02 01:11:33;;;;;;;2.22;0.98;;;4.30;99.90;;;;;;5093277;28;20020;-84
2021/12/02 01:13:59;;;;;;;2.75;1.00;;;4.40;99.90;;;;;;5075111;28;20024;-84
2021/12/02 01:16:26;;;;;;;2.42;1.00;;;4.30;99.90;;;;;;5075045;28;20081;-84
2021/12/02 01:18:52;;;;;;;2.00;0.90;;;4.40;99.90;;;;;;5093476;28;20375;-83
2021/12/02 01:21:24;;;;;;;2.20;1.00;;;4.40;99.90;;;;;;5074978;28;20024;-84
2021/12/02 01:23:52;;;;;;;4.55;1.00;;;4.40;99.90;;;;;;5093659;28;20383;-84
2021/12/02 01:26:19;;;;;;;2.22;0.80;;;4.40;99.90;;;;;;5093088;28;20047;-84
2021/12/02 01:28:48;;;;;;;2.03;0.88;;;4.50;99.90;;;;;;5093089;28;20020;-83
2021/12/02 01:31:14;;;;;;;5.07;1.20;;;4.50;99.90;;;;;;5075276;28;20130;-84
2021/12/02 01:33:41;;;;;;;1.50;1.10;;;4.50;99.90;;;;;;5093238;28;20491;-84
2021/12/02 01:36:07;;;;;;;2.85;0.98;;;4.40;99.90;;;;;;5078218;28;20032;-83
2021/12/02 01:38:33;;;;;;;2.53;1.10;;;4.40;99.90;;;;;;5096948;28;20502;-83
2021/12/02 01:41:01;;;;;;;3.65;0.80;;;4.50;99.90;;;;;;5096983;28;20032;-83
2021/12/02 01:43:49;;;;;;;2.30;0.90;;;4.40;99.90;;;;;;5078638;28;20030;-84
2021/12/02 01:46:18;;;;;;;1.63;0.90;;;4.50;99.90;;;;;;5078834;28;20474;-83
2021/12/02 01:48:49;;;;;;;1.27;1.00;;;4.60;99.90;;;;;;5078584;28;20480;-83
2021/12/02 01:51:18;;;;;;;3.03;1.15;;;4.50;99.90;;;;;;5096869;28;20031;-83
2021/12/02 01:53:48;;;;;;;2.45;1.27;;;4.40;99.90;;;;;;5096776;28;20035;-83
2021/12/02 01:56:16;;;;;;;7.70;1.17;;;4.40;99.90;;;;;;5078521;28;20028;-82
2021/12/02 01:58:49;;;;;;;2.60;0.93;;;4.40;99.90;;;;;;5078439;28;20020;-82
2021/12/02 02:01:26;;;;;;;7.22;1.00;;;4.30;99.90;;;;;;5078411;28;20059;-83
2021/12/02 02:03:54;;;;;;;1.85;0.88;;;4.30;99.90;;;;;;5078372;28;20027;-83
2021/12/02 02:06:36;;;;;;;1.55;0.75;;;4.30;99.90;;;;;;5096485;28;20023;-83
2021/12/02 02:09:03;;;;;;;3.35;1.08;;;4.40;99.90;;;;;;5096513;28;20103;-83
2021/12/02 02:11:30;;;;;;;3.10;0.90;;;4.40;99.90;;;;;;5096451;28;20056;-83
2021/12/02 02:13:57;;;;;;;2.75;0.90;;;4.40;99.90;;;;;;5078222;28;20028;-83
2021/12/02 02:16:24;;;;;;;1.58;0.90;;;4.50;99.90;;;;;;5078151;28;20027;-83
2021/12/02 02:18:50;;;;;;;1.75;0.90;;;4.50;99.90;;;;;;5078115;28;20082;-84
2021/12/02 02:21:18;;;;;;;1.63;0.85;;;4.50;99.90;;;;;;5078078;28;20032;-83
2021/12/02 02:24:11;;;;;;;3.65;0.93;;;4.50;99.90;;;;;;5078468;28;20046;-83
2021/12/02 02:26:35;;;;;;;2.25;0.80;;;4.40;99.90;;;;;;5095501;28;20029;-83
2021/12/02 02:29:06;;;;;;;1.30;0.80;;;4.40;99.90;;;;;;5077924;28;20020;-83
2021/12/02 02:31:34;;;;;;;3.33;0.75;;;4.40;99.90;;;;;;5077838;28;20031;-83
2021/12/02 02:34:00;;;;;;;3.00;0.80;;;4.40;99.90;;;;;;5077842;28;20070;-83
2021/12/02 02:36:30;;;;;;;1.63;0.70;;;4.40;99.90;;;;;;5077761;28;20055;-83
2021/12/02 02:38:57;;;;;;;1.30;0.70;;;4.40;99.90;;;;;;5077588;28;20048;-83
2021/12/02 02:41:36;;;;;;;1.85;0.90;;;4.30;99.90;;;;;;5077696;28;20399;-83
2021/12/02 02:44:03;;;;;;;2.78;0.82;;;4.30;99.90;;;;;;5077641;28;20498;-83
2021/12/02 02:46:41;;;;;;;4.93;0.90;;;4.30;99.90;;;;;;5094704;28;20419;-83
2021/12/02 02:49:10;;;;;;;1.33;0.77;;;4.30;99.90;;;;;;5077592;28;20023;-82
2021/12/02 02:51:38;;;;;;;2.33;0.80;;;4.30;99.90;;;;;;5097499;28;20498;-83
2021/12/02 02:54:07;;;;;;;1.73;0.90;;;4.40;99.90;;;;;;5080338;28;20028;-83
2021/12/02 02:56:37;;;;;;;4.70;0.80;;;4.50;99.90;;;;;;5096689;28;20020;-83
2021/12/02 03:14:36;;;;;;;0.90;0.52;;;4.10;99.90;;;;;;5095865;28;20109;-83
2021/12/02 03:17:02;;;;;;;2.55;0.80;;;4.00;99.90;;;;;;5095156;28;20047;-83
2021/12/02 03:19:29;;;;;;;3.15;0.73;;;4.00;99.90;;;;;;5077600;28;20059;-83
2021/12/02 03:21:57;;;;;;;1.75;0.80;;;4.00;99.90;;;;;;5077762;28;20527;-83
2021/12/02 03:24:24;;;;;;;1.38;0.60;;;3.90;99.90;;;;;;5076793;28;20154;-83
2021/12/02 03:26:50;;;;;;;2.17;0.63;;;4.00;99.90;;;;;;5076799;28;20028;-83
2021/12/02 03:29:17;;;;;;;0.90;0.60;;;4.00;99.90;;;;;;5095221;28;20020;-83
2021/12/02 03:31:43;;;;;;;3.10;0.88;;;3.90;99.90;;;;;;5076727;28;20024;-83
2021/12/02 03:34:09;;;;;;;0.98;0.75;;;4.00;99.90;;;;;;5076720;28;20074;-84
2021/12/02 03:36:36;;;;;;;2.45;0.80;;;3.80;99.90;;;;;;5094812;28;20519;-83
2021/12/02 03:39:04;;;;;;;2.63;0.70;;;3.70;99.90;;;;;;5076413;28;20112;-83
2021/12/02 03:41:31;;;;;;;1.10;0.85;;;3.70;99.90;;;;;;5094726;28;20107;-84
2021/12/02 03:43:56;;;;;;;2.85;1.00;;;3.80;99.90;;;;;;5094585;28;20498;-84
2021/12/02 03:46:24;;;;;;;1.63;0.60;;;3.80;99.90;;;;;;5076761;28;20041;-84
2021/12/02 03:48:51;;;;;;;1.77;0.70;;;3.80;99.90;;;;;;5076238;28;20028;-83
2021/12/02 03:51:17;;;;;;;1.25;0.60;;;3.90;99.90;;;;;;5094512;28;20099;-84
2021/12/02 03:53:45;;;;;;;3.20;0.75;;;4.00;99.90;;;;;;5076547;28;20066;-84
2021/12/02 03:56:10;;;;;;;4.15;0.90;;;4.00;99.90;;;;;;5076181;28;20025;-84
2021/12/02 03:58:39;;;;;;;1.33;0.75;;;4.00;99.90;;;;;;5075888;28;20115;-84
2021/12/02 04:01:06;;;;;;;1.58;0.60;;;4.00;99.90;;;;;;5094313;28;20051;-84
2021/12/02 04:03:32;;;;;;;2.20;0.60;;;4.00;99.90;;;;;;5076066;28;20027;-84
2021/12/02 04:05:59;;;;;;;3.90;0.70;;;4.00;99.90;;;;;;5076028;28;20020;-84
2021/12/02 04:08:31;;;;;;;2.50;0.70;;;4.00;99.90;;;;;;5076063;28;20024;-83
2021/12/02 04:11:46;;;;;;;6.65;1.00;;;4.10;99.90;;;;;;5094187;28;20052;-83
2021/12/02 04:14:05;;;;;;;1.27;0.90;;;4.00;99.90;;;;;;5085670;28;20066;-83
2021/12/02 04:16:35;;;;;;;0.82;0.80;;;4.00;99.90;;;;;;5094169;28;20029;-83
2021/12/02 04:19:01;;;;;;;4.45;0.73;;;4.10;99.90;;;;;;5076062;28;20028;-83
2021/12/02 04:21:27;;;;;;;2.85;0.90;;;4.00;99.90;;;;;;5093991;28;20051;-83
2021/12/02 04:23:53;;;;;;;1.95;0.90;;;4.10;99.90;;;;;;5075638;28;20109;-83
2021/12/02 04:26:19;;;;;;;2.17;0.60;;;4.10;99.90;;;;;;5093844;28;20031;-83
2021/12/02 04:28:44;;;;;;;4.88;0.95;;;4.10;99.90;;;;;;5093832;28;20054;-83
2021/12/02 04:31:10;;;;;;;0.75;0.70;;;4.10;99.90;;;;;;5075769;28;20016;-83
2021/12/02 04:33:36;;;;;;;3.60;0.60;;;4.00;99.90;;;;;;5075571;28;20027;-83
2021/12/02 04:36:03;;;;;;;2.38;0.70;;;4.00;99.90;;;;;;5075664;28;20111;-83
2021/12/02 04:38:28;;;;;;;0.73;0.60;;;4.00;99.90;;;;;;5072027;28;20380;-83
2021/12/02 04:40:55;;;;;;;1.45;0.73;;;4.20;99.90;;;;;;5089394;28;20027;-83
2021/12/02 04:43:21;;;;;;;1.63;0.90;;;4.20;99.90;;;;;;5088997;28;20021;-83
2021/12/02 04:45:47;;;;;;;3.00;1.17;;;4.20;99.90;;;;;;5088932;28;20438;-83
2021/12/02 04:48:14;;;;;;;2.78;0.63;;;4.20;99.90;;;;;;5073569;28;20020;-83
2021/12/02 04:50:40;;;;;;;8.25;3.22;;;4.20;99.90;;;;;;5088875;28;20115;-84
2021/12/02 04:53:06;;;;;;;3.38;0.93;;;4.20;99.90;;;;;;5088917;28;20031;-83
2021/12/02 04:55:32;;;;;;;1.65;0.70;;;4.20;99.90;;;;;;5073306;28;20476;-83
2021/12/02 04:57:57;;;;;;;1.98;0.90;;;4.30;99.90;;;;;;5088802;28;20056;-83
2021/12/02 05:00:23;;;;;;;2.88;0.80;;;4.30;99.90;;;;;;5073480;28;20036;-83
2021/12/02 05:02:49;;;;;;;1.05;0.60;;;4.30;99.90;;;;;;5089837;28;20044;-83
2021/12/02 05:05:15;;;;;;;1.58;0.60;;;4.20;99.90;;;;;;5090830;28;20429;-83
2021/12/02 05:07:41;;;;;;;1.40;0.75;;;4.20;99.90;;;;;;5090329;28;20103;-83
2021/12/02 05:10:07;;;;;;;1.35;0.70;;;4.20;99.90;;;;;;5072675;28;20038;-84
2021/12/02 05:12:33;;;;;;;5.75;1.17;;;4.30;99.90;;;;;;5088725;28;20391;-83
2021/12/02 05:15:00;;;;;;;2.20;0.70;;;4.30;99.90;;;;;;5088692;28;20024;-83
2021/12/02 05:17:26;;;;;;;1.20;0.70;;;4.10;99.90;;;;;;5088597;28;20024;-83
2021/12/02 05:19:52;;;;;;;1.02;0.68;;;4.10;99.90;;;;;;5088620;28;20364;-83
2021/12/02 05:22:18;;;;;;;1.42;0.80;;;4.00;99.90;;;;;;5088531;28;20024;-83
2021/12/02 05:24:44;;;;;;;4.88;0.90;;;4.10;99.90;;;;;;5072845;28;20503;-83
2021/12/02 05:27:12;;;;;;;1.38;0.70;;;4.10;99.90;;;;;;5072992;28;20066;-83
2021/12/02 05:29:41;;;;;;;2.08;0.63;;;4.00;99.90;;;;;;5088522;28;20024;-83
2021/12/02 05:32:07;;;;;;;1.30;0.80;;;4.00;99.90;;;;;;5088485;28;20021;-83
2021/12/02 05:34:33;;;;;;;7.10;0.77;;;4.00;99.90;;;;;;5088457;28;20032;-83
2021/12/02 05:36:59;;;;;;;3.13;0.70;;;4.00;99.90;;;;;;5091265;28;20127;-83
2021/12/02 05:39:24;;;;;;;2.20;0.70;;;3.90;99.90;;;;;;5074922;28;20032;-83
2021/12/02 05:41:53;;;;;;;1.60;0.70;;;3.90;99.90;;;;;;5074826;28;20032;-83
2021/12/02 05:44:20;;;;;;;12.80;5.40;;;3.90;99.90;;;;;;5092906;28;20036;-83
2021/12/02 05:46:46;;;;;;;3.42;0.85;;;3.80;99.90;;;;;;5092954;28;20142;-82
2021/12/02 05:49:11;;;;;;;2.05;0.80;;;3.90;99.90;;;;;;5074795;28;20051;-83
2021/12/02 05:51:37;;;;;;;1.15;0.80;;;3.90;99.90;;;;;;5074773;28;20020;-82
2021/12/02 05:54:03;;;;;;;0.95;0.80;;;3.80;99.90;;;;;;5074645;28;20032;-83
2021/12/02 05:56:29;;;;;;;2.15;1.38;;;3.60;99.90;;;;;;5074757;28;20059;-84
2021/12/02 05:58:55;;;;;;;0.90;0.77;;;3.50;99.90;;;;;;5074756;28;20028;-83
2021/12/02 06:01:22;;;;;;;4.30;1.27;;;3.60;99.90;;;;;;5074649;28;20510;-83
2021/12/02 06:03:47;;;;;;;1.50;1.00;;;3.70;99.90;;;;;;5074640;28;20024;-84
2021/12/02 06:06:15;;;;;;;1.33;0.63;;;3.70;99.90;;;;;;5093023;28;20023;-83
2021/12/02 06:08:41;;;;;;;1.70;0.80;;;3.50;99.90;;;;;;5074564;28;20048;-83
2021/12/02 06:11:06;;;;;;;1.85;0.80;;;3.50;99.90;;;;;;5074619;28;20074;-83
2021/12/02 06:13:32;;;;;;;1.45;0.68;;;3.50;99.90;;;;;;5092675;28;20048;-84
2021/12/02 06:15:58;;;;;;;1.02;0.52;;;3.50;99.90;;;;;;5074528;28;20016;-83
2021/12/02 06:18:24;;;;;;;1.27;0.60;;;3.50;99.90;;;;;;5074780;28;20110;-83
2021/12/02 06:20:56;;;;;;;1.65;1.02;;;3.60;99.90;;;;;;5075854;28;20077;-83
2021/12/02 06:23:22;;;;;;;1.17;0.68;;;3.60;99.90;;;;;;5096304;28;20027;-84
2021/12/02 06:25:49;;;;;;;0.75;0.50;;;3.60;99.90;;;;;;5096156;28;20043;-83
2021/12/02 06:28:18;;;;;;;1.65;0.77;;;3.70;99.90;;;;;;5078036;28;20471;-83
2021/12/02 06:30:45;;;;;;;0.95;0.70;;;3.70;99.90;;;;;;5077984;28;20020;-83
2021/12/02 06:33:11;;;;;;;2.75;1.02;;;3.70;99.90;;;;;;5077777;28;20081;-83
2021/12/02 06:35:37;;;;;;;2.22;0.85;;;3.80;99.90;;;;;;5077856;28;20024;-83
2021/12/02 06:38:03;;;;;;;4.07;0.98;;;3.80;99.90;;;;;;5095823;28;20044;-83
2021/12/02 06:40:29;;;;;;;1.00;0.80;;;3.80;99.90;;;;;;5077771;28;20035;-83
2021/12/02 06:42:55;;;;;;;1.15;0.50;;;3.80;99.90;;;;;;5078320;28;20367;-83
2021/12/02 06:45:21;;;;;;;1.17;0.75;;;3.80;99.90;;;;;;5077503;28;20030;-84
2021/12/02 06:47:48;;;;;;;2.17;0.90;;;3.90;99.90;;;;;;5077881;28;20468;-84
2021/12/02 06:50:18;;;;;;;5.78;0.80;;;3.90;99.90;;;;;;5077601;28;20024;-84
2021/12/02 06:52:45;;;;;;;0.63;0.50;;;3.90;99.90;;;;;;5077472;28;20024;-82
2021/12/02 06:55:12;;;;;;;0.95;0.60;;;3.80;99.90;;;;;;5095642;28;20378;-83
2021/12/02 06:57:40;;;;;;;1.58;0.52;;;3.70;99.90;;;;;;5095816;28;20464;-83
2021/12/02 07:00:10;;;;;;;1.27;0.70;;;3.60;99.90;;;;;;5077510;28;20024;-83
2021/12/02 07:02:37;;;;;;;2.05;0.98;;;3.50;99.90;;;;;;5095799;28;20031;-83
2021/12/02 07:05:04;;;;;;;1.02;0.63;;;3.50;99.90;;;;;;5095334;28;20024;-84
2021/12/02 07:07:34;;;;;;;2.35;0.80;;;3.30;99.90;;;;;;5077262;28;20062;-83
2021/12/02 07:10:00;;;;;;;1.17;0.93;;;3.30;99.90;;;;;;5077160;28;20028;-84
2021/12/02 07:12:33;;;;;;;2.30;1.30;;;3.40;99.90;;;;;;5095423;28;20024;-82
2021/12/02 07:15:05;;;;;;;1.15;0.88;;;3.40;99.90;;;;;;5080457;28;20028;-84
2021/12/02 07:17:32;;;;;;;2.42;1.10;;;3.50;99.90;;;;;;5097935;28;20020;-83
2021/12/02 07:19:58;;;;;;;1.80;0.90;;;3.50;99.90;;;;;;5095472;28;20026;-83
2021/12/02 07:22:23;;;;;;;0.60;0.57;;;3.60;99.90;;;;;;5077037;28;20032;-84
2021/12/02 07:24:49;;;;;;;2.05;0.80;;;3.60;99.90;;;;;;5076781;28;20031;-83
2021/12/02 07:27:15;;;;;;;1.23;0.60;;;3.50;99.90;;;;;;5076912;28;20024;-84
2021/12/02 07:29:41;;;;;;;1.02;0.68;;;3.60;99.90;;;;;;5094905;28;20017;-84
2021/12/02 07:32:10;;;;;;;2.88;1.25;;;3.60;99.90;;;;;;5076099;28;20028;-83
2021/12/02 07:34:40;;;;;;;2.28;1.33;;;3.70;99.90;;;;;;5076687;28;20052;-83
2021/12/02 07:37:06;;;;;;;1.48;1.00;;;3.70;99.90;;;;;;5076406;28;20040;-84
2021/12/02 07:39:31;;;;;;;2.58;1.00;;;3.80;99.90;;;;;;5076587;28;20364;-83
2021/12/02 07:41:57;;;;;;;3.35;0.95;;;3.80;99.90;;;;;;5076500;28;20020;-84
2021/12/02 07:44:25;;;;;;;1.77;0.80;;;3.90;99.90;;;;;;5076560;28;20048;-83
2021/12/02 07:46:51;;;;;;;1.25;0.77;;;3.90;99.90;;;;;;5076407;28;20373;-84
2021/12/02 07:49:17;;;;;;;2.60;1.00;;;3.90;99.90;;;;;;5076356;28;20024;-84
2021/12/02 07:51:44;;;;;;;3.60;1.27;;;3.90;99.90;;;;;;5076397;28;20020;-83
2021/12/02 07:54:12;;;;;;;1.23;0.80;;;3.90;99.90;;;;;;5076283;28;20471;-84
2021/12/02 07:56:38;;;;;;;1.98;0.98;;;3.90;99.90;;;;;;5076276;28;20059;-84
2021/12/02 07:59:05;;;;;;;1.33;1.00;;;3.90;99.90;;;;;;5076243;28;20445;-84
2021/12/02 08:01:34;;;;;;;1.67;0.80;;;3.90;99.90;;;;;;5094337;28;20028;-84
2021/12/02 08:04:01;;;;;;;1.30;0.70;;;4.00;99.90;;;;;;5076052;28;20035;-83
2021/12/02 08:06:27;;;;;;;2.88;0.80;;;4.00;99.90;;;;;;5076096;28;20027;-84
2021/12/02 08:08:54;;;;;;;1.45;1.05;;;4.10;99.90;;;;;;5094292;28;20020;-84
2021/12/02 08:11:19;;;;;;;2.63;1.40;;;4.00;99.90;;;;;;5075964;28;20016;-84
2021/12/02 08:13:50;;;;;;;3.17;1.13;;;4.20;99.90;;;;;;5094097;28;20024;-84
2021/12/02 08:16:18;;;;;;;2.20;1.00;;;4.50;99.90;;;;;;5094412;28;20379;-84
2021/12/02 08:18:44;;;;;;;2.50;1.42;;;4.90;99.90;;;;;;5075864;28;20368;-84
2021/12/02 08:21:09;;;;;;;2.22;0.98;;;5.20;99.90;;;;;;5075724;28;20031;-84
2021/12/02 08:23:35;;;;;;;1.70;0.95;;;5.40;99.90;;;;;;5075797;28;20020;-84
2021/12/02 08:26:01;;;;;;;4.18;2.40;;;5.50;99.90;;;;;;5075770;28;20024;-84
2021/12/02 08:28:28;;;;;;;2.22;1.13;;;5.60;99.90;;;;;;5075685;28;20028;-83
2021/12/02 08:30:54;;;;;;;3.97;2.00;;;5.60;99.90;;;;;;5094050;28;20016;-83
2021/12/02 08:33:20;;;;;;;3.97;1.30;;;5.70;99.90;;;;;;5093727;28;20031;-83
2021/12/02 08:35:46;;;;;;;2.63;1.10;;;5.90;99.90;;;;;;5075567;28;20391;-84
2021/12/02 08:38:15;;;;;;;1.85;1.05;;;5.80;99.90;;;;;;5075318;28;20046;-83
2021/12/02 08:40:42;;;;;;;1.38;0.85;;;5.60;99.90;;;;;;5093657;28;20047;-84
2021/12/02 08:43:10;;;;;;;2.45;1.00;;;5.40;99.90;;;;;;5075468;28;20020;-84
2021/12/02 08:45:37;;;;;;;0.98;0.77;;;5.40;99.90;;;;;;5074528;28;20097;-84
2021/12/02 08:48:05;;;;;;;2.38;1.45;;;5.40;99.90;;;;;;5093492;28;20076;-84
2021/12/02 08:50:32;;;;;;;4.15;2.17;;;5.40;99.90;;;;;;5075353;28;20020;-84
2021/12/02 08:52:59;;;;;;;5.35;2.00;;;5.40;99.90;;;;;;5075372;28;20582;-84
2021/12/02 08:55:26;;;;;;;2.85;1.60;;;5.30;99.90;;;;;;5093478;28;20480;-84
2021/12/02 08:57:53;;;;;;;3.63;1.63;;;5.20;99.90;;;;;;5075201;28;20027;-84
2021/12/02 09:00:26;;;;;;;2.50;1.48;;;5.00;99.90;;;;;;5075249;28;20051;-83
2021/12/02 09:02:53;;;;;;;2.00;1.33;;;5.00;99.90;;;;;;5075309;28;20036;-83
2021/12/02 09:05:19;;;;;;;5.30;1.75;;;4.80;99.90;;;;;;5075151;28;20468;-84
2021/12/02 09:07:45;;;;;;;4.22;1.80;;;4.80;99.90;;;;;;5075370;28;20052;-83
2021/12/02 09:10:12;;;;;;;3.55;1.63;;;4.80;99.90;;;;;;5058396;28;20119;-83
2021/12/02 09:12:38;;;;;;;2.97;1.67;;;4.70;99.90;;;;;;5093225;28;20024;-83
2021/12/02 09:15:08;;;;;;;2.13;1.35;;;4.60;99.90;;;;;;5093511;28;20026;-84
2021/12/02 09:17:34;;;;;;;2.38;1.55;;;4.60;99.90;;;;;;5075503;28;20111;-83
2021/12/02 09:19:59;;;;;;;4.32;1.60;;;4.50;99.90;;;;;;5079352;28;20028;-84
2021/12/02 09:22:25;;;;;;;7.50;4.93;;;4.50;99.90;;;;;;5078485;28;20035;-84
2021/12/02 09:24:51;;;;;;;3.95;1.73;;;4.50;99.90;;;;;;5093472;28;20020;-84
2021/12/02 09:27:17;;;;;;;2.58;1.10;;;4.70;99.90;;;;;;5075179;28;20016;-84
2021/12/02 09:29:42;;;;;;;1.70;1.20;;;4.90;99.90;;;;;;5093127;28;20024;-82
2021/12/02 09:32:08;;;;;;;1.25;1.00;;;4.80;99.90;;;;;;5074911;28;20020;-84
2021/12/02 09:34:34;;;;;;;4.40;1.00;;;4.70;99.90;;;;;;5074924;28;20028;-84
2021/12/02 09:37:00;;;;;;;1.10;0.80;;;4.80;99.90;;;;;;5074629;28;20036;-83
2021/12/02 09:39:30;;;;;;;1.92;1.05;;;4.70;99.90;;;;;;5074873;28;20399;-83
2021/12/02 09:41:57;;;;;;;2.30;1.10;;;4.60;99.90;;;;;;5074893;28;20027;-84
2021/12/02 09:44:23;;;;;;;2.38;1.20;;;4.60;99.90;;;;;;5074748;28;20487;-83
2021/12/02 09:46:48;;;;;;;1.42;0.98;;;4.70;99.90;;;;;;5074852;28;20066;-84
2021/12/02 09:49:16;;;;;;;1.20;1.00;;;4.40;99.90;;;;;;5074680;28;20020;-84
2021/12/02 09:54:26;;;;;;;1.23;1.10;;;4.40;99.90;;;;;;5093205;28;20126;-84
2021/12/02 09:56:54;;;;;;;1.48;1.10;;;4.50;99.90;;;;;;5095977;28;20070;-84
2021/12/02 09:59:28;;;;;;;3.65;1.90;;;4.50;99.90;;;;;;5078483;28;20525;-83
2021/12/02 10:02:04;;;;;;;3.58;1.33;;;4.50;99.90;;;;;;5096925;28;20016;-83
2021/12/02 10:04:31;;;;;;;1.20;0.93;;;4.50;99.90;;;;;;5078328;28;20028;-83
2021/12/02 10:07:08;;;;;;;3.38;0.93;;;4.50;99.90;;;;;;5078325;28;20046;-83
2021/12/02 10:09:43;;;;;;;1.77;0.88;;;4.40;99.90;;;;;;5078383;28;20107;-82
2021/12/02 10:12:22;;;;;;;1.73;1.13;;;4.50;99.90;;;;;;5078386;28;20028;-83
2021/12/02 10:14:57;;;;;;;5.13;0.90;;;4.40;99.90;;;;;;5096517;28;20479;-83
2021/12/02 10:20:19;;;;;;;3.53;1.10;;;4.30;99.90;;;;;;5096362;28;20050;-82
2021/12/02 10:23:12;;;;;;;1.20;0.93;;;4.10;99.90;;;;;;5078132;28;20391;-82
2021/12/02 10:25:39;;;;;;;2.15;1.10;;;4.10;99.90;;;;;;5096170;28;20059;-82
2021/12/02 10:28:07;;;;;;;3.38;1.17;;;4.20;99.90;;;;;;5078021;28;20024;-83
2021/12/02 10:30:34;;;;;;;1.55;1.00;;;4.20;99.90;;;;;;5096120;28;20073;-83
2021/12/02 10:33:00;;;;;;;3.63;2.35;;;4.20;99.90;;;;;;5077892;28;20119;-83
2021/12/02 10:35:42;;;;;;;3.03;1.80;;;4.20;99.90;;;;;;5078108;28;20059;-83
2021/12/02 10:38:30;;;;;;;3.38;2.17;;;4.20;99.90;;;;;;5095776;28;20039;-83
2021/12/02 10:40:59;;;;;;;12.30;6.78;;;4.20;99.90;;;;;;5077640;28;20043;-84
2021/12/02 10:43:25;;;;;;;8.23;4.13;;;4.20;99.90;;;;;;5077738;28;20028;-83
2021/12/02 10:45:50;;;;;;;15.27;7.18;;;4.20;99.90;;;;;;5095730;28;20032;-84
2021/12/02 10:48:16;;;;;;;11.00;5.03;;;4.20;99.90;;;;;;5077460;28;20024;-83
2021/12/02 10:50:42;;;;;;;7.95;4.20;;;4.20;99.90;;;;;;5077639;28;20118;-80
2021/12/02 10:53:08;;;;;;;12.80;5.43;;;4.20;99.90;;;;;;5077502;28;20060;-81
2021/12/02 10:55:34;;;;;;;24.80;9.15;;;4.30;99.90;;;;;;5095642;28;20115;-81
2021/12/02 10:58:03;;;;;;;4.93;2.50;;;4.20;99.90;;;;;;5077482;28;20063;-81
2021/12/02 11:00:34;;;;;;;9.70;4.22;;;4.20;99.90;;;;;;5077425;28;20024;-81
2021/12/02 11:03:09;;;;;;;16.05;7.72;;;4.20;99.90;;;;;;5095584;28;20051;-80
2021/12/02 11:05:43;;;;;;;5.88;3.95;;;4.40;99.90;;;;;;5077243;28;20031;-81
2021/12/02 11:08:10;;;;;;;2.33;1.50;;;4.40;99.90;;;;;;5076333;28;20438;-81
2021/12/02 11:10:42;;;;;;;3.70;2.42;;;4.30;99.90;;;;;;5077211;28;20126;-81
2021/12/02 11:13:10;;;;;;;3.05;1.92;;;4.30;99.90;;;;;;5077927;28;20024;-81
2021/12/02 11:15:38;;;;;;;2.78;1.35;;;4.30;99.90;;;;;;5095230;28;20052;-81
2021/12/02 11:18:10;;;;;;;1.83;1.38;;;4.30;99.90;;;;;;5077098;28;20528;-81
2021/12/02 11:20:41;;;;;;;2.90;1.52;;;4.30;99.90;;;;;;5095166;28;20095;-81
2021/12/02 11:23:14;;;;;;;2.80;1.63;;;4.30;99.90;;;;;;5095115;28;20479;-81
2021/12/02 11:25:57;;;;;;;2.55;1.40;;;4.20;99.90;;;;;;5077030;28;20028;-81
2021/12/02 11:28:29;;;;;;;2.35;1.00;;;4.20;99.90;;;;;;5077121;28;20023;-80
2021/12/02 11:30:56;;;;;;;1.30;0.98;;;4.20;99.90;;;;;;5095232;28;20046;-81
2021/12/02 11:33:32;;;;;;;1.25;0.98;;;4.20;99.90;;;;;;5094745;28;20111;-81
2021/12/02 11:35:58;;;;;;;1.50;1.10;;;4.10;99.90;;;;;;5076759;28;20069;-82
2021/12/02 11:38:26;;;;;;;1.10;0.80;;;4.10;99.90;;;;;;5076436;28;20047;-81
2021/12/02 11:41:00;;;;;;;1.52;1.25;;;4.30;99.90;;;;;;5076603;28;20020;-81
2021/12/02 11:43:31;;;;;;;2.47;1.27;;;4.30;99.90;;;;;;5094846;28;20099;-81
2021/12/02 11:45:59;;;;;;;0.80;0.80;;;4.30;99.90;;;;;;5076478;28;20116;-81
2021/12/02 11:48:28;;;;;;;1.55;1.00;;;4.30;99.90;;;;;;5076319;28;20039;-81
2021/12/02 11:50:57;;;;;;;2.42;1.48;;;4.20;99.90;;;;;;5094566;28;20046;-81
2021/12/02 11:53:24;;;;;;;1.85;1.10;;;4.40;99.90;;;;;;5076270;28;20031;-81
2021/12/02 11:55:59;;;;;;;2.53;1.05;;;4.50;99.90;;;;;;5094471;28;20016;-81
2021/12/02 11:58:25;;;;;;;1.38;1.10;;;4.50;99.90;;;;;;5076335;28;20020;-81
2021/12/02 12:00:52;;;;;;;1.67;1.17;;;4.60;99.90;;;;;;5076218;28;20024;-81
2021/12/02 12:03:27;;;;;;;1.02;0.82;;;4.50;99.90;;;;;;5094362;28;20024;-81
2021/12/02 12:05:58;;;;;;;1.55;0.93;;;4.50;99.90;;;;;;5076074;28;20060;-81
2021/12/02 12:08:32;;;;;;;1.42;1.10;;;4.50;99.90;;;;;;5094341;28;20417;-81
2021/12/02 12:11:24;;;;;;;1.00;0.70;;;4.50;99.90;;;;;;5076179;28;20027;-81
2021/12/02 12:14:12;;;;;;;1.10;0.90;;;4.40;99.90;;;;;;5075961;28;20027;-81
2021/12/02 12:16:46;;;;;;;0.73;0.68;;;4.50;99.90;;;;;;5094245;28;20031;-81
2021/12/02 12:19:26;;;;;;;;;;;4.40;99.90;;;;;;5076085;28;20048;-81
2021/12/02 12:21:56;;;;;;;1.27;1.02;;;4.50;99.90;;;;;;5075880;28;19904;-81
2021/12/02 12:24:45;;;;;;;2.30;1.50;;;4.60;99.90;;;;;;5075703;28;20111;-81
2021/12/02 12:27:18;;;;;;;2.90;1.42;;;4.70;99.90;;;;;;5078858;28;20032;-81
2021/12/02 12:29:47;;;;;;;2.00;1.48;;;4.60;99.90;;;;;;5094188;28;20024;-82
2021/12/02 12:32:35;;;;;;;3.83;1.55;;;4.60;99.90;;;;;;5093818;28;20032;-81
2021/12/02 12:35:08;;;;;;;4.18;2.30;;;4.70;99.90;;;;;;5075669;28;20073;-80
2021/12/02 12:40:23;;;;;;;2.93;1.80;;;4.70;99.90;;;;;;5094056;28;20035;-81
2021/12/02 12:43:17;;;;;;;3.53;1.85;;;4.60;99.90;;;;;;5075473;28;20024;-81
2021/12/02 12:45:43;;;;;;;2.53;1.50;;;4.60;99.90;;;;;;5075628;28;20024;-81
2021/12/02 12:48:18;;;;;;;3.05;1.73;;;4.70;99.90;;;;;;5075591;28;20024;-81
2021/12/02 12:50:46;;;;;;;2.53;1.95;;;4.70;99.90;;;;;;5093505;28;20035;-81
2021/12/02 12:53:18;;;;;;;4.28;2.28;;;4.70;99.90;;;;;;5093433;28;20024;-81
2021/12/02 12:55:52;;;;;;;6.20;2.50;;;4.70;99.90;;;;;;5093720;28;20375;-81
2021/12/02 12:58:39;;;;;;;3.80;2.25;;;4.80;99.90;;;;;;5075265;28;20023;-81
2021/12/02 13:01:22;;;;;;;2.85;2.20;;;4.80;99.90;;;;;;5075527;28;20077;-81
2021/12/02 13:04:06;;;;;;;5.10;2.95;;;4.80;99.90;;;;;;5075145;28;20052;-81
2021/12/02 13:06:46;;;;;;;2.78;1.90;;;4.80;99.90;;;;;;5075232;28;20012;-81
2021/12/02 13:09:30;;;;;;;2.58;1.50;;;4.90;99.90;;;;;;5075108;28;20400;-81
2021/12/02 13:11:59;;;;;;;3.30;2.00;;;4.90;99.90;;;;;;5075178;28;20024;-80
2021/12/02 13:14:25;;;;;;;4.03;2.35;;;4.90;99.90;;;;;;5075111;28;20442;-80
2021/12/02 13:16:50;;;;;;;2.83;1.70;;;4.90;99.90;;;;;;5075033;28;20028;-81
2021/12/02 13:19:17;;;;;;;4.05;2.20;;;4.80;99.90;;;;;;5075028;28;20020;-81
2021/12/02 13:21:45;;;;;;;1.90;1.40;;;4.90;99.90;;;;;;5074980;28;20480;-81
2021/12/02 13:24:19;;;;;;;2.95;1.80;;;4.70;99.90;;;;;;5093060;28;20105;-81
2021/12/02 13:26:46;;;;;;;;;;;4.70;99.90;;;;;;5075436;28;20023;-81
2021/12/02 13:29:23;;;;;;;4.32;1.33;;;4.70;99.90;;;;;;5093082;28;19949;-80
2021/12/02 13:32:11;;;;;;;3.22;1.58;;;4.60;99.90;;;;;;5077802;28;20027;-81
2021/12/02 13:34:38;;;;;;;2.25;1.50;;;4.60;99.90;;;;;;5097243;28;20388;-81
2021/12/02 13:37:09;;;;;;;1.98;1.40;;;4.60;99.90;;;;;;5097211;28;20443;-81